Muito nublado
Nublado
Muito nublado
Parcialmente enevoado
Parcialmente enevoado
Parcialmente enevoado
Parcialmente enevoado
Parcialmente enevoado
Parcialmente enevoado
(°C)
18°
18°
17°
17°
17°
17°
17°
17°
17°
17°
17°
17°
17°
17°
17°
17°
17°
17°
(°C)
18°
18°
17°
17°
17°
17°
17°
17°
18°
S
S
S
S
S
S
S
S
S
(km/h)
5-11
4-9
4-9
4-9
3-8
3-8
3-8
3-8
3-9
(mm)
0
0
0
0
0
0
0
0
0
(%)
0
0
0
0
0
0
0
0
0

Elevação do sol

/ -31.8°
sun-icon
UV 9
05:39
20:00
Crescente gibosa (137°)
17:08
02:52

METAR para San Diego (KSAN)

Hora Condições Temperatura/
Ponto de condensação
Vento Visibilidade Tempo Nuvens Pressão Mudança Bruto
MVFR 17.2°C / 13.3°C 110º 4kt >10km - Overcast 1600ft 1010 - KSAN 190551Z 11004KT 10SM OVC016 17/13 A2985 RMK AO2 SLP108 T01720133 10194 20172 51015
MVFR 17.8°C / 13.3°C 230º 4kt >10km - Overcast 1500ft 1010 - KSAN 190451Z 23004KT 9SM OVC015 18/13 A2985 RMK AO2 SLP107 T01780133
MVFR 17.8°C / 13.3°C 210º 4kt >10km - Broken Clouds 1600ft 1009 - KSAN 190351Z 21004KT 9SM BKN016 18/13 A2982 RMK AO2 SLP099 T01780133
MVFR 17.8°C / 13.3°C 200º 7kt >10km - Broken Clouds 1600ft - KSAN 190317Z 20007KT 9SM BKN016 18/13 A2982 RMK AO2 T01780133
VFR 18.3°C / 13.3°C 200º 7kt >10km - Scattered Clouds 1700ft 1009 - KSAN 190251Z 20007KT 8SM SCT017 18/13 A2981 RMK AO2 SLP093 T01830133 55001
VFR 18.3°C / 13.3°C 210º 7kt >10km - Scattered Clouds 1800ft 1009 - KSAN 190151Z 21007KT 9SM SCT018 18/13 A2980 RMK AO2 SLP092 T01830133
VFR 18.9°C / 13.3°C 200º 5kt >10km - Scattered Clouds 1800ft - KSAN 190118Z 20005KT 9SM SCT018 19/13 A2981 RMK AO2 T01890133
MVFR 18.9°C / 13.3°C 200º 6kt >10km - Broken Clouds 1800ft 1009 - KSAN 190051Z 20006KT 9SM BKN018 19/13 A2980 RMK AO2 SLP091 BKN V SCT T01890133
MVFR 19.4°C / 13.3°C 170º 5kt Gust 16kt >10km - Broken Clouds 1900ft 1009 - KSAN 182351Z 17005G16KT 9SM BKN019 19/13 A2981 RMK AO2 SLP094 T01940133 10206 20189 58001
MVFR 19.4°C / 13.3°C 210º variable 190º to 270º 9kt Gust 19kt >10km - Broken Clouds 1800ft 1009 - KSAN 182251Z 21009G19KT 190V270 9SM BKN018 19/13 A2982 RMK AO2 SLP098 T01940133
MVFR 20°C / 13.3°C 230º 10kt Gust 18kt >10km - Broken Clouds 1900ft 1009 - KSAN 182151Z 23010G18KT 10SM BKN019 20/13 A2982 RMK AO2 SLP099 T02000133
MVFR 20°C / 13.9°C 220º 10kt >10km - Broken Clouds 1900ft - KSAN 182110Z 22010KT 10SM BKN019 20/14 A2982 RMK AO2 BKN V SCT T02000139
VFR 20°C / 13.3°C 220º 9kt Gust 23kt >10km - Scattered Clouds 1700ft 1009 - KSAN 182051Z 22009G23KT 10SM SCT017 20/13 A2981 RMK AO2 SLP095 SCT V BKN T02000133 53003
VFR 20°C / 13.9°C 200º 11kt Gust 20kt >10km - Scattered Clouds 2000ft 1009 - KSAN 181951Z 20011G20KT 10SM SCT020 20/14 A2981 RMK AO2 SLP094 T02000139
VFR 19.4°C / 13.3°C 200º 9kt Gust 17kt >10km - Scattered Clouds 2000ft 1009 - KSAN 181851Z 20009G17KT 10SM SCT020 19/13 A2981 RMK AO2 SLP094 T01940133
VFR 19.4°C / 13.3°C 190º 10kt >10km - Scattered Clouds 2100ft 1009 - KSAN 181751Z 19010KT 10SM SCT021 19/13 A2981 RMK AO2 SLP093 SCT V BKN T01940133 10194 20167 51004 $
MVFR 18.9°C / 13.3°C 180º 7kt >10km - Broken Clouds 1900ft 1009 - KSAN 181651Z 18007KT 10SM BKN019 19/13 A2981 RMK AO2 SLP093 T01890133 $
MVFR 18.3°C / 13.3°C 190º 5kt >10km - Overcast 1800ft 1009 - KSAN 181551Z 19005KT 10SM OVC018 18/13 A2980 RMK AO2 SLP092 T01830133 $
MVFR 17.2°C / 13.3°C 6kt >10km - Overcast 1800ft 1008 - KSAN 181451Z VRB06KT 10SM OVC018 17/13 A2979 RMK AO2 SLP089 T01720133 53014
MVFR 17.2°C / 13.3°C 170º 10kt Gust 20kt >10km - Overcast 1500ft 1008 - KSAN 181351Z 17010G20KT 9SM OVC015 17/13 A2978 RMK AO2 SLP083 T01720133
MVFR 17.2°C / 13.3°C 180º 8kt >10km - Overcast 1600ft 1007 - KSAN 181251Z 18008KT 10SM OVC016 17/13 A2976 RMK AO2 SLP078 T01720133
MVFR 17.8°C / 13.3°C 160º 8kt >10km - Overcast 1600ft 1007 - KSAN 181151Z 16008KT 10SM OVC016 18/13 A2975 RMK AO2 SLP074 T01780133 10183 20172 53002
MVFR 17.8°C / 13.3°C 170º 9kt >10km - Overcast 1600ft 1007 - KSAN 181051Z 17009KT 10SM OVC016 18/13 A2975 RMK AO2 SLP073 T01780133
MVFR 17.8°C / 13.9°C 180º 7kt >10km - Overcast 1600ft 1007 - KSAN 180951Z 18007KT 10SM OVC016 18/14 A2974 RMK AO2 SLP071 T01780139

MVFR

17.2°C / 13.3°C

[Mais]
Vento 110º 4kt
Visibilidade >10km
Tempo -
Nuvens Overcast 1600ft
Pressão 1010
Mudança -
Bruto KSAN 190551Z 11004KT 10SM OVC016 17/13 A2985 RMK AO2 SLP108 T01720133 10194 20172 51015

MVFR

17.8°C / 13.3°C

[Mais]
Vento 230º 4kt
Visibilidade >10km
Tempo -
Nuvens Overcast 1500ft
Pressão 1010
Mudança -
Bruto KSAN 190451Z 23004KT 9SM OVC015 18/13 A2985 RMK AO2 SLP107 T01780133

MVFR

17.8°C / 13.3°C

[Mais]
Vento 210º 4kt
Visibilidade >10km
Tempo -
Nuvens Broken Clouds 1600ft
Pressão 1009
Mudança -
Bruto KSAN 190351Z 21004KT 9SM BKN016 18/13 A2982 RMK AO2 SLP099 T01780133

MVFR

17.8°C / 13.3°C

[Mais]
Vento 200º 7kt
Visibilidade >10km
Tempo -
Nuvens Broken Clouds 1600ft
Pressão
Mudança -
Bruto KSAN 190317Z 20007KT 9SM BKN016 18/13 A2982 RMK AO2 T01780133

VFR

18.3°C / 13.3°C

[Mais]
Vento 200º 7kt
Visibilidade >10km
Tempo -
Nuvens Scattered Clouds 1700ft
Pressão 1009
Mudança -
Bruto KSAN 190251Z 20007KT 8SM SCT017 18/13 A2981 RMK AO2 SLP093 T01830133 55001

VFR

18.3°C / 13.3°C

[Mais]
Vento 210º 7kt
Visibilidade >10km
Tempo -
Nuvens Scattered Clouds 1800ft
Pressão 1009
Mudança -
Bruto KSAN 190151Z 21007KT 9SM SCT018 18/13 A2980 RMK AO2 SLP092 T01830133

VFR

18.9°C / 13.3°C

[Mais]
Vento 200º 5kt
Visibilidade >10km
Tempo -
Nuvens Scattered Clouds 1800ft
Pressão
Mudança -
Bruto KSAN 190118Z 20005KT 9SM SCT018 19/13 A2981 RMK AO2 T01890133

MVFR

18.9°C / 13.3°C

[Mais]
Vento 200º 6kt
Visibilidade >10km
Tempo -
Nuvens Broken Clouds 1800ft
Pressão 1009
Mudança -
Bruto KSAN 190051Z 20006KT 9SM BKN018 19/13 A2980 RMK AO2 SLP091 BKN V SCT T01890133

MVFR

19.4°C / 13.3°C

[Mais]
Vento 170º 5kt Gust 16kt
Visibilidade >10km
Tempo -
Nuvens Broken Clouds 1900ft
Pressão 1009
Mudança -
Bruto KSAN 182351Z 17005G16KT 9SM BKN019 19/13 A2981 RMK AO2 SLP094 T01940133 10206 20189 58001

MVFR

19.4°C / 13.3°C

[Mais]
Vento 210º variable 190º to 270º 9kt Gust 19kt
Visibilidade >10km
Tempo -
Nuvens Broken Clouds 1800ft
Pressão 1009
Mudança -
Bruto KSAN 182251Z 21009G19KT 190V270 9SM BKN018 19/13 A2982 RMK AO2 SLP098 T01940133

MVFR

20°C / 13.3°C

[Mais]
Vento 230º 10kt Gust 18kt
Visibilidade >10km
Tempo -
Nuvens Broken Clouds 1900ft
Pressão 1009
Mudança -
Bruto KSAN 182151Z 23010G18KT 10SM BKN019 20/13 A2982 RMK AO2 SLP099 T02000133

MVFR

20°C / 13.9°C

[Mais]
Vento 220º 10kt
Visibilidade >10km
Tempo -
Nuvens Broken Clouds 1900ft
Pressão
Mudança -
Bruto KSAN 182110Z 22010KT 10SM BKN019 20/14 A2982 RMK AO2 BKN V SCT T02000139

VFR

20°C / 13.3°C

[Mais]
Vento 220º 9kt Gust 23kt
Visibilidade >10km
Tempo -
Nuvens Scattered Clouds 1700ft
Pressão 1009
Mudança -
Bruto KSAN 182051Z 22009G23KT 10SM SCT017 20/13 A2981 RMK AO2 SLP095 SCT V BKN T02000133 53003

VFR

20°C / 13.9°C

[Mais]
Vento 200º 11kt Gust 20kt
Visibilidade >10km
Tempo -
Nuvens Scattered Clouds 2000ft
Pressão 1009
Mudança -
Bruto KSAN 181951Z 20011G20KT 10SM SCT020 20/14 A2981 RMK AO2 SLP094 T02000139

VFR

19.4°C / 13.3°C

[Mais]
Vento 200º 9kt Gust 17kt
Visibilidade >10km
Tempo -
Nuvens Scattered Clouds 2000ft
Pressão 1009
Mudança -
Bruto KSAN 181851Z 20009G17KT 10SM SCT020 19/13 A2981 RMK AO2 SLP094 T01940133

VFR

19.4°C / 13.3°C

[Mais]
Vento 190º 10kt
Visibilidade >10km
Tempo -
Nuvens Scattered Clouds 2100ft
Pressão 1009
Mudança -
Bruto KSAN 181751Z 19010KT 10SM SCT021 19/13 A2981 RMK AO2 SLP093 SCT V BKN T01940133 10194 20167 51004 $

MVFR

18.9°C / 13.3°C

[Mais]
Vento 180º 7kt
Visibilidade >10km
Tempo -
Nuvens Broken Clouds 1900ft
Pressão 1009
Mudança -
Bruto KSAN 181651Z 18007KT 10SM BKN019 19/13 A2981 RMK AO2 SLP093 T01890133 $

MVFR

18.3°C / 13.3°C

[Mais]
Vento 190º 5kt
Visibilidade >10km
Tempo -
Nuvens Overcast 1800ft
Pressão 1009
Mudança -
Bruto KSAN 181551Z 19005KT 10SM OVC018 18/13 A2980 RMK AO2 SLP092 T01830133 $

MVFR

17.2°C / 13.3°C

[Mais]
Vento 6kt
Visibilidade >10km
Tempo -
Nuvens Overcast 1800ft
Pressão 1008
Mudança -
Bruto KSAN 181451Z VRB06KT 10SM OVC018 17/13 A2979 RMK AO2 SLP089 T01720133 53014

MVFR

17.2°C / 13.3°C

[Mais]
Vento 170º 10kt Gust 20kt
Visibilidade >10km
Tempo -
Nuvens Overcast 1500ft
Pressão 1008
Mudança -
Bruto KSAN 181351Z 17010G20KT 9SM OVC015 17/13 A2978 RMK AO2 SLP083 T01720133

MVFR

17.2°C / 13.3°C

[Mais]
Vento 180º 8kt
Visibilidade >10km
Tempo -
Nuvens Overcast 1600ft
Pressão 1007
Mudança -
Bruto KSAN 181251Z 18008KT 10SM OVC016 17/13 A2976 RMK AO2 SLP078 T01720133

MVFR

17.8°C / 13.3°C

[Mais]
Vento 160º 8kt
Visibilidade >10km
Tempo -
Nuvens Overcast 1600ft
Pressão 1007
Mudança -
Bruto KSAN 181151Z 16008KT 10SM OVC016 18/13 A2975 RMK AO2 SLP074 T01780133 10183 20172 53002

MVFR

17.8°C / 13.3°C

[Mais]
Vento 170º 9kt
Visibilidade >10km
Tempo -
Nuvens Overcast 1600ft
Pressão 1007
Mudança -
Bruto KSAN 181051Z 17009KT 10SM OVC016 18/13 A2975 RMK AO2 SLP073 T01780133

MVFR

17.8°C / 13.9°C

[Mais]
Vento 180º 7kt
Visibilidade >10km
Tempo -
Nuvens Overcast 1600ft
Pressão 1007
Mudança -
Bruto KSAN 180951Z 18007KT 10SM OVC016 18/14 A2974 RMK AO2 SLP071 T01780139

TAF para San Diego (KSAN)

From till


From till Wind 190º 5kt. Visibility 9700m. Broken Clouds 1500ft.
From till Wind 200º 11kt. Visibility 9700m. Scattered Clouds 1600ft.
From till Wind 4kt. Visibility 9700m. Broken Clouds 1600ft.

Bruto: KSAN 190520Z 1906/2012 19005KT P6SM BKN015 FM191730 20011KT P6SM SCT016 FM200230 VRB04KT P6SM BKN016

rainNOW: Pluviosidade agoracast por San Diego e arredores (raio de 25km)

0.0 mm
0.0 mm
0.0 mm
0.0 mm
0.0 mm
0.0 mm
0.0 mm
0.0 mm
0.0 mm
0.0 mm
0.0 mm
0.0 mm

Radar e precipitação nowcast para San Diego

Chuvisco
Leve
Moderado
Forte
Muito forte
Granizo

O marcador do lugar é colocado em San Diego. Esta animação mostra o radar de precipitação para o intervalo de tempo selecionado, bem como uma previsão de 1h. As cruzes de cor laranja indicam relâmpagos. Dados fornecidos por nowcast.de (disponível nos EUA, Europa e Austrália). A queda de neve suave ou ligeira pode ser invisível para o radar. A intensidade da precipitação é codificada por cores, variando de turquesa a vermelha.

Imagens de satélite atuais para San Diego, EUA

O marcador de lugar é colocado em San Diego. [Mais]

A imagem de satélite em tempo real combina luz visível durante o dia com radiação infravermelha durante a noite. À noite, a imagem não é escura, pois a radiação infravermelha pode detectar diferenças de temperatura. Infelizmente, nuvens baixas e neblina são difíceis de distinguir das temperaturas do solo e, portanto, podem ser quase invisíveis durante a noite. As imagens de satélite Meteosat para a Europa são atualizadas em tempo real a cada 5 minutos. GOES-16/GOES-17 ( América do Norte e do Sul) e Himawari (Ásia) são atualizadas a cada 10 minutos.

A precipitação é estimada a partir de radares e satélites. As estimativas de precipitação a partir de satélites são menos precisas à noite do que durante o dia.

© 2024 meteoblue, NOAA Satellites GOES-16 and EUMETSAT. Dados de relâmpagos fornecidos por nowcast.

Voltar ao início
×
Olá,
parece que você está usando um bloqueador de anúncios.

A publicidade é essencial para manter o nosso site gratuito com detalhes e precisão únicos.

Por favor approve www.meteoblue.com no seu bloqueador de anúncios ou considere a compra de um dos nossos produtos:

Já tem uma assinatura?
Então por favor login.